Locust, Iowa
Current Conditions -  °F | °C
As of 4:35 PM on Wednesday 22 Oct 2014 (Local Time) from KDEH Reporting Station
Scattered Clouds Scattered Clouds  
Wind Chill: 57°   Ceiling: Unl
Heat Index: 57°   Visibility: 10mi
Dew Point: 37°   Wind: 14mph
Humidity: 48%   Direction: 150°SSE
Pressure: 30.16"   Gusts: NA
Location:  43.3626°N, 91.8164°W
Report Text: KDEH 222135Z AUTO 15012KT 10SM SCT070 14/03 A3016 RMK AO2
Loading
Personal Weather Stations






























Interactive Weather Map
Tropical Storm Tracking
New forecast layout! Learn more

10-Day Weather Forecast

Advertisements
Track Severe Weather on mobile